Alex, Louisiana
Current Conditions -  °F | °C
As of 11:53 PM on Sunday 25 Jan 2015 (Local Time) from KAEX Reporting Station
Clear Clear  
Wind Chill: 51°   Ceiling: Unl
Heat Index: 51°   Visibility: 10mi
Dew Point: 31°   Wind: 10mph
Humidity: 46%   Direction: 300°WNW
Pressure: 30.06"   Gusts: NA
Location:  31.2081°N, 92.3683°W
Report Text: KAEX 260553Z 30009KT 10SM CLR 11/M01 A3006 RMK AO2 SLP183 T01061006 10167 20106 401940033 53020 $
Loading
Personal Weather Stations






























Interactive Weather Map New forecast layout! Learn more

10-Day Weather Forecast

Advertisements
Track Severe Weather on mobile